Bradevelt, New Jersey
Current Conditions -  °F | °C
As of 12:35 PM on Friday 31 Oct 2014 (Local Time) from KBLM Reporting Station
Overcast Overcast  
Wind Chill: 50°   Ceiling: 3600
Heat Index: 50°   Visibility: 10mi
Dew Point: 37°   Wind: 9mph
Humidity: 62%   Direction: 10°N
Pressure: 29.94"   Gusts: NA
Location:  40.3194°N, 74.2497°W
Report Text: KBLM 311635Z AUTO 01008KT 10SM OVC036 10/03 A2994 RMK AO1
Loading
Personal Weather Stations






























Interactive Weather Map
Tropical Storm Tracking
New forecast layout! Learn more

10-Day Weather Forecast

Advertisements
Track Severe Weather on mobile